createdAt,value
2019-01-05T00:02:43.589Z,70.84
2019-01-05T00:05:31.107Z,71.02
2019-01-05T00:08:18.735Z,71.21
2019-01-05T00:11:06.261Z,71.27
2019-01-05T00:13:53.905Z,71.33
2019-01-05T00:17:02.210Z,71.39
2019-01-05T00:19:49.930Z,71.62
2019-01-05T00:25:45.746Z,72.04
2019-01-05T00:28:54.067Z,72.11
2019-01-05T00:31:41.759Z,72.27
2019-01-05T00:34:50.084Z,72.58
2019-01-05T00:40:32.936Z,73.47
2019-01-05T00:46:28.824Z,74.25
2019-01-05T00:49:37.140Z,74.37
2019-01-05T00:52:24.746Z,74.52
2019-01-05T00:55:33.069Z,74.47
2019-01-05T00:58:20.822Z,74.54
2019-01-05T01:04:16.570Z,74.44
2019-01-05T01:07:04.162Z,74.52
2019-01-05T01:12:27.086Z,74.57
2019-01-05T01:21:19.226Z,74.51
2019-01-05T01:27:14.894Z,74.40
2019-01-05T01:33:31.558Z,74.44
2019-01-05T01:36:19.215Z,74.34
2019-01-05T01:39:27.786Z,74.21
2019-01-05T01:42:15.377Z,74.12
2019-01-05T01:45:23.781Z,74.10
2019-01-05T01:48:32.072Z,74.09
2019-01-05T01:57:29.923Z,74.04
2019-01-05T02:00:38.235Z,74.01
2019-01-05T02:03:46.808Z,74.04
2019-01-05T02:06:55.153Z,74.08
2019-01-05T02:10:03.511Z,74.01
2019-01-05T02:13:11.825Z,73.94
2019-01-05T02:16:20.163Z,73.99
2019-01-05T02:19:28.532Z,74.06
2019-01-05T02:22:54.770Z,74.09
2019-01-05T02:26:20.883Z,74.18
2019-01-05T02:29:29.362Z,74.20
2019-01-05T02:32:37.737Z,74.09
2019-01-05T02:36:03.892Z,74.00
2019-01-05T02:39:30.135Z,73.87
2019-01-05T02:42:56.404Z,73.77
2019-01-05T02:46:05.041Z,73.75
2019-01-05T02:52:30.271Z,73.78
2019-01-05T02:55:38.619Z,73.74
2019-01-05T02:58:47.051Z,73.85
2019-01-05T03:05:26.063Z,73.79
2019-01-05T03:12:22.813Z,73.87
2019-01-05T03:15:31.449Z,73.99
2019-01-05T03:18:57.940Z,74.40
2019-01-05T03:25:36.668Z,74.88
2019-01-05T03:28:45.043Z,74.96
2019-01-05T03:31:54.047Z,74.97
2019-01-05T03:35:02.426Z,74.96
2019-01-05T03:38:28.711Z,74.94
2019-01-05T03:41:37.084Z,74.98
2019-01-05T03:48:02.619Z,74.90
2019-01-05T03:51:28.740Z,74.79
2019-01-05T03:54:37.398Z,74.80
2019-01-05T03:58:03.519Z,74.60
2019-01-05T04:04:46.834Z,74.26
2019-01-05T04:07:55.138Z,74.16
2019-01-05T04:11:03.588Z,73.96
2019-01-05T04:14:29.720Z,73.78
2019-01-05T04:17:38.200Z,73.62
2019-01-05T04:20:46.562Z,73.64
2019-01-05T04:24:12.791Z,73.52
2019-01-05T04:27:38.909Z,73.47
2019-01-05T04:31:05.133Z,73.45
2019-01-05T04:34:13.447Z,73.52
2019-01-05T04:37:39.603Z,73.79
2019-01-05T04:40:24.441Z,73.76
2019-01-05T04:43:33.341Z,73.65
2019-01-05T04:46:59.462Z,73.55
2019-01-05T04:50:08.355Z,73.46
2019-01-05T04:56:47.247Z,73.35
2019-01-05T04:59:55.874Z,73.28
2019-01-05T05:03:22.064Z,73.31
2019-01-05T05:06:30.682Z,73.30
2019-01-05T05:09:56.907Z,73.17
2019-01-05T05:13:23.026Z,73.08
2019-01-05T05:16:49.251Z,72.96
2019-01-05T05:20:15.373Z,72.92
2019-01-05T05:23:24.113Z,72.94
2019-01-05T05:26:32.485Z,72.90
2019-01-05T05:29:58.709Z,72.93
2019-01-05T05:33:24.819Z,73.05
2019-01-05T05:36:51.044Z,73.09
2019-01-05T05:40:17.166Z,73.18
2019-01-05T05:46:45.871Z,73.37
2019-01-05T05:49:54.520Z,73.49
2019-01-05T05:53:20.848Z,73.57
2019-01-05T05:56:46.969Z,73.55
2019-01-05T05:59:55.379Z,73.54
2019-01-05T06:03:21.495Z,73.57
2019-01-05T06:06:47.813Z,73.60
2019-01-05T06:10:13.927Z,73.78
2019-01-05T06:16:42.988Z,73.90
2019-01-05T06:20:09.107Z,74.12
2019-01-05T06:23:17.531Z,74.30
2019-01-05T06:26:26.185Z,74.39
2019-01-05T06:29:34.923Z,74.48
2019-01-05T06:32:43.557Z,74.60
2019-01-05T06:35:51.999Z,74.68
2019-01-05T06:39:00.313Z,74.82
2019-01-05T06:42:00.255Z,74.94
2019-01-05T06:45:26.381Z,75.01
2019-01-05T06:48:34.901Z,75.07
2019-01-05T06:52:01.036Z,75.10
2019-01-05T06:55:09.452Z,75.23
2019-01-05T06:58:35.571Z,75.25
2019-01-05T07:01:44.271Z,75.31
2019-01-05T07:04:52.905Z,75.48
2019-01-05T07:08:01.253Z,75.52
2019-01-05T07:11:27.421Z,75.74
2019-01-05T07:14:53.565Z,75.87
2019-01-05T07:21:50.140Z,76.09
2019-01-05T07:24:58.486Z,76.13
2019-01-05T07:28:24.661Z,76.13
2019-01-05T07:31:33.027Z,76.14
2019-01-05T07:34:41.698Z,76.19
2019-01-05T07:38:07.821Z,76.42
2019-01-05T07:41:34.052Z,76.85
2019-01-05T07:45:00.242Z,77.14
2019-01-05T07:48:26.637Z,77.33
2019-01-05T07:51:52.754Z,77.14
2019-01-05T07:55:18.977Z,77.04
2019-01-05T07:58:45.103Z,76.96
2019-01-05T08:01:53.848Z,76.96
2019-01-05T08:05:19.966Z,76.95
2019-01-05T08:08:28.378Z,76.91
2019-01-05T08:11:54.493Z,76.87
2019-01-05T08:15:20.669Z,76.86
2019-01-05T08:18:29.305Z,76.94
2019-01-05T08:21:55.680Z,76.96
2019-01-05T08:25:21.807Z,77.01
2019-01-05T08:32:04.891Z,77.10
2019-01-05T08:35:13.212Z,77.21
2019-01-05T08:41:38.369Z,77.42
2019-01-05T08:44:47.051Z,77.48
2019-01-05T08:48:13.189Z,77.52
2019-01-05T08:51:39.311Z,77.51
2019-01-05T08:54:47.729Z,77.45
2019-01-05T08:57:56.097Z,77.45
2019-01-05T09:01:04.483Z,77.54
2019-01-05T09:04:30.612Z,77.63
2019-01-05T09:07:38.972Z,77.67
2019-01-05T09:11:05.099Z,77.72
2019-01-05T09:17:27.938Z,77.74
2019-01-05T09:20:36.463Z,77.72
2019-01-05T09:30:36.135Z,77.78
2019-01-05T09:34:02.252Z,77.84
2019-01-05T09:37:10.781Z,77.88
2019-01-05T09:40:19.410Z,77.83
2019-01-05T09:43:45.801Z,77.82
2019-01-05T09:47:11.943Z,77.88
2019-01-05T09:50:20.831Z,77.96
2019-01-05T09:53:29.152Z,77.95
2019-01-05T09:56:55.393Z,78.01
2019-01-05T10:00:21.512Z,78.15
2019-01-05T10:03:47.665Z,78.24
2019-01-05T10:06:56.073Z,78.31
2019-01-05T10:10:04.495Z,78.29
2019-01-05T10:13:30.612Z,78.28
2019-01-05T10:16:56.863Z,78.27
2019-01-05T10:20:05.184Z,78.19
2019-01-05T10:23:31.553Z,78.11
2019-01-05T10:26:57.675Z,78.09
2019-01-05T10:30:06.093Z,78.01
2019-01-05T10:33:14.463Z,77.92
2019-01-05T10:36:22.911Z,77.83
2019-01-05T10:39:31.543Z,77.65
2019-01-05T10:42:40.223Z,77.52
2019-01-05T10:45:48.591Z,77.50
2019-01-05T10:49:14.855Z,77.43
2019-01-05T10:52:40.980Z,77.42
2019-01-05T10:56:07.457Z,77.45
2019-01-05T10:59:15.777Z,77.48
2019-01-05T11:02:42.089Z,77.66
2019-01-05T11:06:08.206Z,77.72
2019-01-05T11:09:16.767Z,77.76
2019-01-05T11:12:25.139Z,77.95
2019-01-05T11:15:51.371Z,77.97
2019-01-05T11:18:59.969Z,78.08
2019-01-05T11:22:27.676Z,78.17
2019-01-05T11:29:06.435Z,78.24
2019-01-05T11:32:32.564Z,78.25
2019-01-05T11:35:41.205Z,78.33
2019-01-05T11:39:07.334Z,78.56
2019-01-05T11:42:33.681Z,78.66
2019-01-05T11:52:30.946Z,78.63
2019-01-05T11:59:27.556Z,78.52
2019-01-05T12:02:35.940Z,78.49
2019-01-05T12:06:02.142Z,78.50
2019-01-05T12:09:10.435Z,78.52
2019-01-05T12:12:36.702Z,78.53
2019-01-05T12:15:45.076Z,78.54
2019-01-05T12:18:53.499Z,78.59
2019-01-05T12:25:32.730Z,78.63
2019-01-05T12:28:41.048Z,78.66
2019-01-05T12:32:07.232Z,78.75
2019-01-05T12:35:15.540Z,78.79
2019-01-05T12:38:24.178Z,78.88
2019-01-05T12:41:50.300Z,78.96
2019-01-05T12:44:58.658Z,78.96
2019-01-05T12:48:07.082Z,78.98
2019-01-05T12:51:33.336Z,78.97
2019-01-05T12:54:59.454Z,78.93
2019-01-05T12:58:07.887Z,78.87
2019-01-05T13:04:47.118Z,78.85
2019-01-05T13:08:13.229Z,78.80
2019-01-05T13:11:22.143Z,78.80
2019-01-05T13:14:48.266Z,78.79
2019-01-05T13:17:56.707Z,78.79
2019-01-05T13:21:05.074Z,78.78
2019-01-05T13:24:13.718Z,78.85
2019-01-05T13:27:39.848Z,78.97
2019-01-05T13:31:06.081Z,78.95
2019-01-05T13:34:32.200Z,78.93
2019-01-05T13:41:00.877Z,78.98
2019-01-05T13:44:27.004Z,79.00
2019-01-05T13:47:53.498Z,79.09
2019-01-05T13:51:01.877Z,79.08
2019-01-05T13:57:04.910Z,79.10
2019-01-05T14:02:41.750Z,79.15
2019-01-05T14:11:01.118Z,79.27
2019-01-05T14:13:48.638Z,79.28
2019-01-05T14:19:11.637Z,79.40
2019-01-05T14:21:59.149Z,79.37
2019-01-05T14:24:46.806Z,79.35
2019-01-05T14:27:34.322Z,79.35
2019-01-05T14:30:22.042Z,79.36
2019-01-05T14:33:09.562Z,79.37
2019-01-05T14:35:57.122Z,79.41
2019-01-05T14:38:44.646Z,79.50
2019-01-05T14:41:32.204Z,79.44
2019-01-05T14:49:44.248Z,79.61
2019-01-05T14:55:21.102Z,79.73
2019-01-05T14:58:08.626Z,79.69
2019-01-05T15:08:49.334Z,79.72
2019-01-05T15:14:26.055Z,79.79
2019-01-05T15:17:13.572Z,79.78
2019-01-05T15:25:15.303Z,79.85
2019-01-05T15:30:51.932Z,79.80
2019-01-05T15:33:39.459Z,79.76
2019-01-05T15:39:05.861Z,79.61
2019-01-05T15:41:53.381Z,79.64
2019-01-05T15:44:41.225Z,79.71
2019-01-05T15:47:28.763Z,79.77
2019-01-05T15:50:16.398Z,79.79
2019-01-05T15:53:03.921Z,79.83
2019-01-05T15:55:51.467Z,79.85
2019-01-05T15:58:39.002Z,79.83
2019-01-05T16:01:26.767Z,79.80
2019-01-05T16:04:14.291Z,79.83
2019-01-05T16:07:02.085Z,79.90
2019-01-05T16:09:49.608Z,79.95
2019-01-05T16:15:12.464Z,80.03
2019-01-05T16:20:49.312Z,80.17
2019-01-05T16:23:37.773Z,80.19
2019-01-05T16:26:26.380Z,80.19
2019-01-05T16:29:14.737Z,80.23
2019-01-05T16:32:03.408Z,80.28
2019-01-05T16:34:50.944Z,80.39
2019-01-05T16:37:38.698Z,80.45
2019-01-05T16:40:45.541Z,80.45
2019-01-05T16:43:33.248Z,80.48
2019-01-05T16:46:20.766Z,80.44
2019-01-05T16:49:08.398Z,80.47
2019-01-05T16:51:55.926Z,80.40
2019-01-05T16:54:43.468Z,80.38
2019-01-05T16:57:30.998Z,80.34
2019-01-05T17:00:18.810Z,80.39
2019-01-05T17:03:06.355Z,80.34
2019-01-05T17:05:53.999Z,80.34
2019-01-05T17:08:41.520Z,80.39
2019-01-05T17:11:29.320Z,80.40
2019-01-05T17:14:16.842Z,80.48
2019-01-05T17:17:04.437Z,80.44
2019-01-05T17:19:51.955Z,80.47
2019-01-05T17:22:39.573Z,80.53
2019-01-05T17:25:27.164Z,80.50
2019-01-05T17:28:14.803Z,80.54
2019-01-05T17:31:02.328Z,80.58
2019-01-05T17:34:10.672Z,80.65
2019-01-05T17:36:58.191Z,80.73
2019-01-05T17:39:45.862Z,80.73
2019-01-05T17:42:33.375Z,80.75
2019-01-05T17:48:00.110Z,80.75
2019-01-05T17:50:47.621Z,80.79
2019-01-05T17:53:35.272Z,80.82
2019-01-05T17:56:35.036Z,80.82
2019-01-05T17:59:22.777Z,80.87
2019-01-05T18:02:10.305Z,80.87
2019-01-05T18:04:57.988Z,80.83
2019-01-05T18:07:45.575Z,80.90
2019-01-05T18:13:11.916Z,80.86
2019-01-05T18:15:59.440Z,80.88
2019-01-05T18:18:47.069Z,80.87
2019-01-05T18:21:34.611Z,80.85
2019-01-05T18:24:22.385Z,80.89
2019-01-05T18:29:59.081Z,80.82
2019-01-05T18:33:07.391Z,80.79
2019-01-05T18:38:30.155Z,80.72
2019-01-05T18:41:17.665Z,80.77
2019-01-05T18:44:05.282Z,80.79
2019-01-05T18:46:52.813Z,80.82
2019-01-05T18:49:40.356Z,80.86
2019-01-05T18:52:27.917Z,80.86
2019-01-05T18:55:15.548Z,80.82
2019-01-05T18:58:03.101Z,80.83
2019-01-05T19:00:50.820Z,80.80
2019-01-05T19:06:27.514Z,80.82
2019-01-05T19:09:15.039Z,80.86
2019-01-05T19:12:08.545Z,80.86
2019-01-05T19:14:51.997Z,80.87
2019-01-05T19:17:39.863Z,80.93
2019-01-05T19:20:48.196Z,80.92
2019-01-05T19:26:11.478Z,80.91
2019-01-05T19:28:59.022Z,81.02
2019-01-05T19:34:25.626Z,81.05
2019-01-05T19:37:13.146Z,81.09
2019-01-05T19:42:39.860Z,81.07
2019-01-05T19:45:48.180Z,81.10
2019-01-05T19:48:35.721Z,81.10
2019-01-05T19:51:23.242Z,81.03
2019-01-05T19:54:11.029Z,80.97
2019-01-05T19:56:58.541Z,80.96
2019-01-05T19:59:46.321Z,80.96
2019-01-05T20:05:23.253Z,81.09
2019-01-05T20:08:10.780Z,81.15
2019-01-05T20:10:58.363Z,81.22
2019-01-05T20:13:45.895Z,81.27
2019-01-05T20:16:33.673Z,81.34
2019-01-05T20:19:21.197Z,81.31
2019-01-05T20:22:08.865Z,81.31
2019-01-05T20:25:15.642Z,81.37
2019-01-05T20:30:38.779Z,81.39
2019-01-05T20:33:26.302Z,81.40
2019-01-05T20:36:14.100Z,81.41
2019-01-05T20:39:01.622Z,81.44
2019-01-05T20:41:49.269Z,81.43
2019-01-05T20:44:36.789Z,81.39
2019-01-05T20:50:00.267Z,81.29
2019-01-05T20:52:47.770Z,81.35
2019-01-05T20:55:35.344Z,81.33
2019-01-05T20:58:22.867Z,81.36
2019-01-05T21:01:10.495Z,81.32
2019-01-05T21:03:58.016Z,81.33
2019-01-05T21:06:45.629Z,81.34
2019-01-05T21:09:33.149Z,81.27
2019-01-05T21:14:56.313Z,81.28
2019-01-05T21:20:33.278Z,81.22
2019-01-05T21:23:20.799Z,81.21
2019-01-05T21:26:08.523Z,81.21
2019-01-05T21:32:04.445Z,81.17
2019-01-05T21:34:51.971Z,81.23
2019-01-05T21:37:39.529Z,81.24
2019-01-05T21:40:47.847Z,81.24
2019-01-05T21:43:35.640Z,81.24
2019-01-05T21:46:23.257Z,81.22
2019-01-05T21:49:10.869Z,81.19
2019-01-05T21:51:58.387Z,81.20
2019-01-05T21:54:46.021Z,81.23
2019-01-05T21:57:33.553Z,81.22
2019-01-05T22:00:21.231Z,81.25
2019-01-05T22:06:18.733Z,81.24
2019-01-05T22:09:06.245Z,81.26
2019-01-05T22:14:33.981Z,81.20
2019-01-05T22:17:22.264Z,81.28
2019-01-05T22:20:10.049Z,81.30
2019-01-05T22:22:57.569Z,81.25
2019-01-05T22:28:24.003Z,81.25
2019-01-05T22:31:11.519Z,81.27
2019-01-05T22:33:59.105Z,81.30
2019-01-05T22:36:46.632Z,81.32
2019-01-05T22:39:34.198Z,81.37
2019-01-05T22:45:10.906Z,81.32
2019-01-05T22:51:06.520Z,81.35
2019-01-05T22:56:43.383Z,81.35
2019-01-05T22:59:30.909Z,81.37
2019-01-05T23:07:32.995Z,81.45
2019-01-05T23:10:20.543Z,81.48
2019-01-05T23:13:08.095Z,81.52
2019-01-05T23:15:55.619Z,81.60
2019-01-05T23:18:43.245Z,81.54
2019-01-05T23:26:55.087Z,81.59
2019-01-05T23:29:42.610Z,81.60
2019-01-05T23:32:30.251Z,81.61
2019-01-05T23:35:17.767Z,81.60
2019-01-05T23:38:05.568Z,81.68
2019-01-05T23:40:53.086Z,81.64
2019-01-05T23:46:16.084Z,81.70
2019-01-05T23:49:03.610Z,81.73
2019-01-05T23:51:51.262Z,81.73
2019-01-05T23:54:38.794Z,81.81
2019-01-05T23:57:26.668Z,81.82
